createdAt,value
2024-04-21T00:03:15.979Z,100280.66
2024-04-21T00:08:21.239Z,100278.97
2024-04-21T00:13:29.088Z,100275.88
2024-04-21T00:18:34.425Z,100278.84
2024-04-21T00:23:40.481Z,100283.75
2024-04-21T00:28:51.171Z,100286.28
2024-04-21T00:33:56.486Z,100282.09
2024-04-21T00:39:01.690Z,100281.72
2024-04-21T00:44:11.713Z,100275.38
2024-04-21T00:49:17.595Z,100268.38
2024-04-21T00:54:23.467Z,100270.16
2024-04-21T00:59:34.097Z,100267.31
2024-04-21T01:04:40.112Z,100267.88
2024-04-21T01:09:46.111Z,100271.88
2024-04-21T01:14:55.562Z,100272.53
2024-04-21T01:20:02.913Z,100272.34
2024-04-21T01:25:11.458Z,100280.13
2024-04-21T01:30:17.172Z,100267.09
2024-04-21T01:35:22.563Z,100270.41
2024-04-21T01:40:33.520Z,100265.31
2024-04-21T01:45:39.403Z,100265.97
2024-04-21T01:50:45.013Z,100265.03
2024-04-21T01:55:53.678Z,100264.03
2024-04-21T02:00:59.262Z,100247.53
2024-04-21T02:06:04.946Z,100247.66
2024-04-21T02:11:14.082Z,100245.13
2024-04-21T02:16:19.296Z,100235.72
2024-04-21T02:21:24.519Z,100239.91
2024-04-21T02:26:32.408Z,100237.81
2024-04-21T02:31:37.607Z,100235.34
2024-04-21T02:36:42.777Z,100233.16
2024-04-21T02:41:50.641Z,100233.84
2024-04-21T02:46:55.952Z,100248.44
2024-04-21T02:52:01.236Z,100246.34
2024-04-21T02:57:09.422Z,100247.97
2024-04-21T03:02:14.602Z,100253.38
2024-04-21T03:07:19.824Z,100256.31
2024-04-21T03:12:27.718Z,100255.75
2024-04-21T03:17:32.957Z,100251.03
2024-04-21T03:22:38.294Z,100251.16
2024-04-21T03:27:46.209Z,100253.06
2024-04-21T03:32:56.631Z,100255.75
2024-04-21T03:38:01.904Z,100263.44
2024-04-21T03:43:09.774Z,100258.00
2024-04-21T03:48:15.007Z,100245.63
2024-04-21T03:53:21.665Z,100258.22
2024-04-21T03:58:32.111Z,100256.03
2024-04-21T04:03:41.847Z,100261.91
2024-04-21T04:08:47.061Z,100260.50
2024-04-21T04:13:54.919Z,100257.63
2024-04-21T04:19:00.274Z,100258.41
2024-04-21T04:24:06.078Z,100260.59
2024-04-21T04:29:14.653Z,100253.38
2024-04-21T04:34:19.891Z,100275.28
2024-04-21T04:39:25.137Z,100260.78
2024-04-21T04:44:40.675Z,100259.34
2024-04-21T04:49:45.922Z,100257.44
2024-04-21T04:54:51.337Z,100255.06
2024-04-21T05:00:00.112Z,100244.19
2024-04-21T05:05:06.817Z,100253.09
2024-04-21T05:10:12.278Z,100246.44
2024-04-21T05:15:20.888Z,100249.41
2024-04-21T05:20:28.761Z,100257.72
2024-04-21T05:25:37.015Z,100264.34
2024-04-21T05:30:45.345Z,100260.09
2024-04-21T05:35:50.538Z,100268.25
2024-04-21T05:40:57.700Z,100262.06
2024-04-21T05:46:09.209Z,100263.09
2024-04-21T05:51:15.004Z,100281.97
2024-04-21T05:56:20.456Z,100302.41
2024-04-21T06:01:31.247Z,100311.44
2024-04-21T06:06:37.718Z,100299.09
2024-04-21T06:11:42.894Z,100307.81
2024-04-21T06:16:50.890Z,100306.47
2024-04-21T06:21:56.039Z,100316.81
2024-04-21T06:27:01.539Z,100310.84
2024-04-21T06:32:10.961Z,100327.97
2024-04-21T06:37:16.659Z,100327.13
2024-04-21T06:42:21.854Z,100327.91
2024-04-21T06:47:29.741Z,100329.72
2024-04-21T06:52:34.979Z,100330.22
2024-04-21T06:57:40.170Z,100326.50
2024-04-21T07:02:47.997Z,100323.81
2024-04-21T07:07:55.680Z,100320.56
2024-04-21T07:13:03.818Z,100316.84
2024-04-21T07:18:11.837Z,100328.50
2024-04-21T07:23:17.141Z,100313.84
2024-04-21T07:28:28.247Z,100331.50
2024-04-21T07:33:36.097Z,100330.16
2024-04-21T07:38:41.304Z,100333.53
2024-04-21T07:43:46.435Z,100334.41
2024-04-21T07:48:54.369Z,100335.94
2024-04-21T07:54:00.804Z,100332.91
2024-04-21T07:59:06.499Z,100335.63
2024-04-21T08:04:14.345Z,100338.03
2024-04-21T08:09:29.440Z,100334.69
2024-04-21T08:14:36.394Z,100325.66
2024-04-21T08:19:44.256Z,100331.44
2024-04-21T08:24:49.467Z,100323.69
2024-04-21T08:29:54.732Z,100328.41
2024-04-21T08:35:02.623Z,100316.66
2024-04-21T08:40:09.542Z,100316.47
2024-04-21T08:45:14.789Z,100311.09
2024-04-21T08:50:24.813Z,100305.06
2024-04-21T08:55:34.445Z,100306.13
2024-04-21T09:00:40.292Z,100304.44
2024-04-21T09:05:54.130Z,100312.69
2024-04-21T09:11:01.142Z,100316.06
2024-04-21T09:16:11.297Z,100304.97
2024-04-21T09:21:20.257Z,100306.50
2024-04-21T09:26:27.617Z,100303.03
2024-04-21T09:31:34.611Z,100302.31
2024-04-21T09:36:43.781Z,100290.50
2024-04-21T09:41:52.694Z,100289.41
2024-04-21T09:47:01.784Z,100280.22
2024-04-21T09:52:12.807Z,100299.28
2024-04-21T09:57:25.591Z,100287.19
2024-04-21T10:02:37.599Z,100292.84
2024-04-21T10:07:47.721Z,100285.69
2024-04-21T10:12:53.419Z,100288.66
2024-04-21T10:18:00.029Z,100275.16
2024-04-21T10:23:11.871Z,100278.41
2024-04-21T10:28:18.533Z,100270.00
2024-04-21T10:33:31.843Z,100282.44
2024-04-21T10:38:39.646Z,100291.75
2024-04-21T10:43:45.026Z,100267.09
2024-04-21T10:48:50.182Z,100266.94
2024-04-21T10:53:58.157Z,100270.13
2024-04-21T10:59:05.686Z,100263.56
2024-04-21T11:04:10.858Z,100261.69
2024-04-21T11:09:20.341Z,100264.19
2024-04-21T11:14:26.789Z,100252.09
2024-04-21T11:19:34.619Z,100256.53
2024-04-21T11:24:42.548Z,100252.28
2024-04-21T11:29:50.749Z,100248.34
2024-04-21T11:34:55.879Z,100248.47
2024-04-21T11:40:03.835Z,100256.66
2024-04-21T11:45:09.154Z,100242.59
2024-04-21T11:50:14.308Z,100254.66
2024-04-21T11:55:22.323Z,100240.84
2024-04-21T12:00:27.910Z,100231.81
2024-04-21T12:05:33.080Z,100232.56
2024-04-21T12:10:43.288Z,100225.34
2024-04-21T12:15:48.519Z,100205.53
2024-04-21T12:20:53.732Z,100207.75
2024-04-21T12:26:01.552Z,100194.63
2024-04-21T12:31:07.014Z,100193.00
2024-04-21T12:36:12.311Z,100192.75
2024-04-21T12:41:20.206Z,100172.56
2024-04-21T12:46:25.436Z,100170.72
2024-04-21T12:51:31.009Z,100176.94
2024-04-21T12:56:38.889Z,100168.16
2024-04-21T13:01:44.285Z,100171.44
2024-04-21T13:06:49.907Z,100172.38
2024-04-21T13:11:57.806Z,100153.81
2024-04-21T13:17:03.057Z,100152.69
2024-04-21T13:22:08.469Z,100156.22
2024-04-21T13:27:16.601Z,100142.41
2024-04-21T13:32:21.891Z,100140.03
2024-04-21T13:37:27.169Z,100132.91
2024-04-21T13:42:35.003Z,100117.09
2024-04-21T13:47:40.183Z,100121.28
2024-04-21T13:52:46.002Z,100114.16
2024-04-21T13:57:53.845Z,100113.34
2024-04-21T14:02:59.152Z,100104.56
2024-04-21T14:08:04.308Z,100089.66
2024-04-21T14:13:12.143Z,100096.03
2024-04-21T14:18:17.409Z,100091.25
2024-04-21T14:23:22.561Z,100085.44
2024-04-21T14:28:32.428Z,100086.25
2024-04-21T14:33:37.786Z,100074.69
2024-04-21T14:38:43.204Z,100063.09
2024-04-21T14:43:52.279Z,100063.47
2024-04-21T14:48:57.459Z,100066.78
2024-04-21T14:54:02.657Z,100054.41
2024-04-21T14:59:10.533Z,100037.88
2024-04-21T15:04:17.203Z,100040.22
2024-04-21T15:09:26.192Z,100037.84
2024-04-21T15:14:34.292Z,100025.38
2024-04-21T15:19:39.541Z,100023.09
2024-04-21T15:24:44.706Z,100021.63
2024-04-21T15:29:52.523Z,100016.72
2024-04-21T15:34:57.697Z,100017.78
2024-04-21T15:40:02.928Z,100015.88
2024-04-21T15:45:11.443Z,100015.75
2024-04-21T15:50:17.308Z,100003.31
2024-04-21T15:55:23.442Z,100008.88
2024-04-21T16:00:33.676Z,100002.84
2024-04-21T16:05:39.139Z,100004.69
2024-04-21T16:10:44.371Z,99993.69
2024-04-21T16:15:52.291Z,99994.50
2024-04-21T16:20:57.432Z,99994.84
2024-04-21T16:26:02.593Z,99987.88
2024-04-21T16:31:10.568Z,99983.69
2024-04-21T16:36:19.736Z,99981.88
2024-04-21T16:41:25.476Z,99982.00
2024-04-21T16:46:36.526Z,99983.19
2024-04-21T16:51:42.338Z,99974.25
2024-04-21T16:56:50.751Z,99977.13
2024-04-21T17:01:59.376Z,99979.78
2024-04-21T17:07:05.107Z,99981.09
2024-04-21T17:12:10.798Z,99978.50
2024-04-21T17:17:20.840Z,99978.28
2024-04-21T17:22:26.292Z,99982.50
2024-04-21T17:27:31.494Z,99971.66
2024-04-21T17:32:39.474Z,99979.09
2024-04-21T17:37:47.199Z,99983.19
2024-04-21T17:42:55.209Z,99980.22
2024-04-21T17:48:04.686Z,99990.66
2024-04-21T17:53:09.834Z,100001.78
2024-04-21T17:58:15.065Z,100007.34
2024-04-21T18:03:22.903Z,100000.13
2024-04-21T18:08:28.051Z,100001.41
2024-04-21T18:13:33.265Z,100004.38
2024-04-21T18:18:41.407Z,100000.47
2024-04-21T18:23:46.653Z,100004.97
2024-04-21T18:28:51.850Z,100022.66
2024-04-21T18:33:59.714Z,100019.88
2024-04-21T18:39:04.964Z,100021.44
2024-04-21T18:44:10.083Z,100035.31
2024-04-21T18:49:17.947Z,100021.06
2024-04-21T18:54:23.578Z,100044.47
2024-04-21T18:59:28.713Z,100053.09
2024-04-21T19:04:36.679Z,100049.81
2024-04-21T19:09:42.431Z,100039.38
2024-04-21T19:14:48.173Z,100052.34
2024-04-21T19:19:56.662Z,100054.19
2024-04-21T19:25:01.848Z,100071.13
2024-04-21T19:30:07.494Z,100076.31
2024-04-21T19:35:15.374Z,100074.94
2024-04-21T19:40:20.661Z,100091.09
2024-04-21T19:45:25.910Z,100100.47
2024-04-21T19:50:33.716Z,100102.84
2024-04-21T19:55:38.880Z,100104.22
2024-04-21T20:00:44.090Z,100110.94
2024-04-21T20:05:51.905Z,100109.34
2024-04-21T20:10:57.057Z,100125.00
2024-04-21T20:16:17.740Z,100130.72
2024-04-21T20:21:25.607Z,100147.97
2024-04-21T20:26:30.996Z,100148.34
2024-04-21T20:31:36.234Z,100156.94
2024-04-21T20:36:44.100Z,100166.53
2024-04-21T20:41:49.291Z,100177.22
2024-04-21T20:46:54.431Z,100180.50
2024-04-21T20:52:02.316Z,100182.41
2024-04-21T20:57:07.737Z,100180.63
2024-04-21T21:02:12.922Z,100185.69
2024-04-21T21:07:20.796Z,100196.50
2024-04-21T21:12:26.019Z,100190.00
2024-04-21T21:17:32.943Z,100192.38
2024-04-21T21:22:42.239Z,100199.34
2024-04-21T21:27:47.417Z,100203.81
2024-04-21T21:32:52.767Z,100215.28
2024-04-21T21:38:00.596Z,100218.56
2024-04-21T21:43:05.774Z,100220.19
2024-04-21T21:48:11.597Z,100217.09
2024-04-21T21:53:20.604Z,100215.34
2024-04-21T21:58:25.781Z,100219.38
2024-04-21T22:03:31.034Z,100217.34
2024-04-21T22:08:38.861Z,100223.47
2024-04-21T22:13:44.056Z,100229.91
2024-04-21T22:18:49.291Z,100240.03
2024-04-21T22:23:57.159Z,100231.69
2024-04-21T22:29:02.311Z,100228.22
2024-04-21T22:34:07.460Z,100226.25
2024-04-21T22:39:15.379Z,100234.97
2024-04-21T22:44:20.714Z,100236.50
2024-04-21T22:49:25.874Z,100236.72
2024-04-21T22:54:33.694Z,100239.38
2024-04-21T22:59:38.893Z,100244.06
2024-04-21T23:04:44.025Z,100248.22
2024-04-21T23:09:51.972Z,100248.31
2024-04-21T23:14:57.104Z,100255.72
2024-04-21T23:20:02.364Z,100263.50
2024-04-21T23:25:10.654Z,100260.78
2024-04-21T23:30:16.093Z,100266.88
2024-04-21T23:35:21.261Z,100277.53
2024-04-21T23:40:29.097Z,100275.00
2024-04-21T23:45:34.361Z,100289.88
2024-04-21T23:50:39.502Z,100295.47
2024-04-21T23:55:47.332Z,100295.47
